Time,TemperatureF,DewpointF,PressureIn,WindDirection,WindDirectionDegrees,WindSpeedMPH,WindSpeedGustMPH,Humidity,HourlyPrecipIn,Conditions,Clouds,dailyrainin,SoftwareType,DateUTC
2013-08-12 00:02:00,62.4,58.2,30.06,East,90,0.0,0.0,86,0.00,RA,,0.00,WeatherDisplay:10.37,2013-08-12 05:02:00,
2013-08-12 00:07:00,62.2,58.0,30.06,East,90,0.0,0.0,86,0.00,RA,,0.00,WeatherDisplay:10.37,2013-08-12 05:07:00,
2013-08-12 00:12:00,62.2,58.0,30.06,East,90,0.0,0.0,86,0.00,CLR,,0.00,WeatherDisplay:10.37,2013-08-12 05:12:00,
2013-08-12 00:17:00,62.1,58.1,30.06,East,90,0.0,0.0,87,0.00,CLR,,0.00,WeatherDisplay:10.37,2013-08-12 05:17:00,
2013-08-12 00:22:00,61.9,58.0,30.06,East,90,0.0,0.0,87,0.00,CLR,,0.00,WeatherDisplay:10.37,2013-08-12 05:22:00,
2013-08-12 00:27:00,61.8,57.9,30.06,East,90,0.0,0.0,87,0.00,CLR,,0.00,WeatherDisplay:10.37,2013-08-12 05:27:00,
2013-08-12 00:37:00,61.5,57.6,30.06,East,90,0.0,0.0,87,0.00,CLR,,0.00,WeatherDisplay:10.37,2013-08-12 05:37:00,
2013-08-12 00:42:00,61.5,57.6,30.06,East,90,0.0,0.0,87,0.00,CLR,,0.00,WeatherDisplay:10.37,2013-08-12 05:42:00,
2013-08-12 00:47:00,61.5,57.6,30.06,East,90,0.0,0.0,87,0.00,CLR,,0.00,WeatherDisplay:10.37,2013-08-12 05:47:00,
2013-08-12 00:52:00,61.3,57.4,30.06,East,90,0.0,0.0,87,0.00,CLR,,0.00,WeatherDisplay:10.37,2013-08-12 05:52:00,
2013-08-12 00:57:00,61.3,57.4,30.06,East,90,0.0,0.0,87,0.00,CLR,,0.00,WeatherDisplay:10.37,2013-08-12 05:57:00,
2013-08-12 01:02:00,61.2,57.6,30.05,East,90,0.0,0.0,88,0.00,CLR,,0.00,WeatherDisplay:10.37,2013-08-12 06:02:00,
2013-08-12 01:07:00,61.2,57.6,30.05,East,90,0.0,0.0,88,0.00,CLR,,0.00,WeatherDisplay:10.37,2013-08-12 06:07:00,
2013-08-12 01:12:00,60.9,57.4,30.06,East,90,0.0,0.0,88,0.00,CLR,,0.00,WeatherDisplay:10.37,2013-08-12 06:12:00,
2013-08-12 01:17:00,60.6,57.0,30.05,East,90,0.0,0.0,88,0.00,CLR,,0.00,WeatherDisplay:10.37,2013-08-12 06:17:00,
2013-08-12 01:22:00,60.6,57.0,30.05,East,90,0.0,0.0,88,0.00,CLR,,0.00,WeatherDisplay:10.37,2013-08-12 06:22:00,
2013-08-12 01:27:00,60.4,56.6,30.05,East,90,0.0,0.0,87,0.00,CLR,,0.00,WeatherDisplay:10.37,2013-08-12 06:27:00,
2013-08-12 01:32:00,60.4,56.9,30.05,East,90,0.0,0.0,88,0.00,CLR,,0.00,WeatherDisplay:10.37,2013-08-12 06:32:00,
2013-08-12 01:37:00,60.4,56.9,30.05,East,90,0.0,0.0,88,0.00,CLR,,0.00,WeatherDisplay:10.37,2013-08-12 06:37:00,
2013-08-12 01:42:00,60.4,56.9,30.05,East,90,0.0,0.0,88,0.00,CLR,,0.00,WeatherDisplay:10.37,2013-08-12 06:42:00,
2013-08-12 01:47:00,60.4,56.9,30.06,East,90,0.0,0.0,88,0.00,CLR,,0.00,WeatherDisplay:10.37,2013-08-12 06:47:00,
2013-08-12 01:52:00,60.4,56.9,30.05,East,84,0.0,0.0,88,0.00,CLR,,0.00,WeatherDisplay:10.37,2013-08-12 06:52:00,
2013-08-12 01:57:00,60.4,56.9,30.06,ENE,73,0.0,0.0,88,0.00,CLR,,0.00,WeatherDisplay:10.37,2013-08-12 06:57:00,
2013-08-12 02:02:00,60.4,56.9,30.06,ENE,68,0.0,0.0,88,0.00,CLR,,0.00,WeatherDisplay:10.37,2013-08-12 07:02:00,
2013-08-12 02:07:00,60.3,56.7,30.05,ENE,68,0.0,0.0,88,0.00,CLR,,0.00,WeatherDisplay:10.37,2013-08-12 07:07:00,
2013-08-12 02:12:00,60.1,56.5,30.05,ENE,68,0.0,0.0,88,0.00,CLR,,0.00,WeatherDisplay:10.37,2013-08-12 07:12:00,
2013-08-12 02:17:00,60.1,56.5,30.05,ENE,68,0.0,0.0,88,0.00,CLR,,0.00,WeatherDisplay:10.37,2013-08-12 07:17:00,
2013-08-12 02:22:00,59.9,56.3,30.06,ENE,68,0.0,0.0,88,0.00,CLR,,0.00,WeatherDisplay:10.37,2013-08-12 07:22:00,
2013-08-12 02:27:00,59.7,56.2,30.06,ENE,68,0.0,0.0,88,0.00,CLR,,0.00,WeatherDisplay:10.37,2013-08-12 07:27:00,
2013-08-12 02:32:00,59.7,56.5,30.05,ENE,68,0.0,0.0,89,0.00,CLR,,0.00,WeatherDisplay:10.37,2013-08-12 07:32:00,
2013-08-12 02:37:00,59.5,56.0,30.05,ENE,68,0.0,0.0,88,0.00,CLR,,0.00,WeatherDisplay:10.37,2013-08-12 07:37:00,
2013-08-12 02:42:00,59.5,56.0,30.05,ENE,68,0.0,0.0,88,0.00,CLR,,0.00,WeatherDisplay:10.37,2013-08-12 07:42:00,
2013-08-12 02:47:00,59.5,56.0,30.05,ENE,68,0.0,0.0,88,0.00,CLR,,0.00,WeatherDisplay:10.37,2013-08-12 07:47:00,
2013-08-12 02:52:00,59.5,56.3,30.05,ENE,68,0.0,0.0,89,0.00,CLR,,0.00,WeatherDisplay:10.37,2013-08-12 07:52:00,
2013-08-12 02:57:00,59.4,56.1,30.05,ENE,68,0.0,0.0,89,0.00,CLR,,0.00,WeatherDisplay:10.37,2013-08-12 07:57:00,
2013-08-12 03:02:00,59.2,55.9,30.05,ENE,68,0.0,0.0,89,0.00,CLR,,0.00,WeatherDisplay:10.37,2013-08-12 08:02:00,
2013-08-12 03:07:00,59.2,55.9,30.06,ENE,68,0.0,0.0,89,0.00,CLR,,0.00,WeatherDisplay:10.37,2013-08-12 08:07:00,
2013-08-12 03:12:00,59.0,55.8,30.05,ENE,68,0.0,0.0,89,0.00,CLR,,0.00,WeatherDisplay:10.37,2013-08-12 08:12:00,
2013-08-12 03:17:00,58.8,55.6,30.05,ENE,68,0.0,0.0,89,0.00,CLR,,0.00,WeatherDisplay:10.37,2013-08-12 08:17:00,
2013-08-12 03:22:00,58.8,55.6,30.05,NE,50,0.0,0.0,89,0.00,CLR,,0.00,WeatherDisplay:10.37,2013-08-12 08:22:00,
2013-08-12 03:27:00,58.8,55.6,30.06,North,5,0.0,0.0,89,0.00,CLR,,0.00,WeatherDisplay:10.37,2013-08-12 08:27:00,
2013-08-12 03:32:00,58.8,55.6,30.06,NNW,341,0.0,0.0,89,0.00,CLR,,0.00,WeatherDisplay:10.37,2013-08-12 08:32:00,
2013-08-12 03:37:00,58.8,55.6,30.06,North,349,0.0,0.0,89,0.00,CLR,,0.00,WeatherDisplay:10.37,2013-08-12 08:37:00,
2013-08-12 03:42:00,58.8,55.6,30.06,North,360,0.0,0.0,89,0.00,CLR,,0.00,WeatherDisplay:10.37,2013-08-12 08:42:00,
2013-08-12 03:47:00,58.8,55.6,30.06,North,360,0.0,0.0,89,0.00,CLR,,0.00,WeatherDisplay:10.37,2013-08-12 08:47:00,
2013-08-12 03:52:00,58.8,55.6,30.06,North,360,0.0,0.0,89,0.00,CLR,,0.00,WeatherDisplay:10.37,2013-08-12 08:52:00,
2013-08-12 03:57:00,58.7,55.5,30.06,North,360,0.0,0.0,89,0.00,CLR,,0.00,WeatherDisplay:10.37,2013-08-12 08:57:00,
2013-08-12 04:02:00,58.5,55.2,30.05,North,360,0.0,0.0,89,0.00,CLR,,0.00,WeatherDisplay:10.37,2013-08-12 09:02:00,
2013-08-12 04:07:00,58.3,55.1,30.06,North,360,0.0,0.0,89,0.00,CLR,,0.00,WeatherDisplay:10.37,2013-08-12 09:07:00,
2013-08-12 04:12:00,58.3,55.1,30.06,North,360,0.0,0.0,89,0.00,CLR,,0.00,WeatherDisplay:10.37,2013-08-12 09:12:00,
2013-08-12 04:17:00,58.3,55.1,30.06,North,360,0.0,0.0,89,0.00,CLR,,0.00,WeatherDisplay:10.37,2013-08-12 09:17:00,
2013-08-12 04:22:00,58.1,54.9,30.06,North,360,0.0,0.0,89,0.00,CLR,,0.00,WeatherDisplay:10.37,2013-08-12 09:22:00,
2013-08-12 04:27:00,58.0,54.8,30.06,North,360,0.0,0.0,89,0.00,CLR,,0.00,WeatherDisplay:10.37,2013-08-12 09:27:00,
2013-08-12 04:32:00,57.9,54.7,30.06,North,360,0.0,0.0,89,0.00,CLR,,0.00,WeatherDisplay:10.37,2013-08-12 09:32:00,
2013-08-12 04:37:00,57.9,54.7,30.06,North,360,0.0,0.0,89,0.00,CLR,,0.00,WeatherDisplay:10.37,2013-08-12 09:37:00,
2013-08-12 04:42:00,57.9,54.7,30.06,North,360,0.0,0.0,89,0.00,CLR,,0.00,WeatherDisplay:10.37,2013-08-12 09:42:00,
2013-08-12 04:47:00,57.7,54.5,30.06,North,360,0.0,0.0,89,0.00,CLR,,0.00,WeatherDisplay:10.37,2013-08-12 09:47:00,
2013-08-12 04:52:00,57.6,54.3,30.05,North,360,0.0,0.0,89,0.00,CLR,,0.00,WeatherDisplay:10.37,2013-08-12 09:52:00,
2013-08-12 04:57:00,57.6,54.3,30.05,North,360,0.0,0.0,89,0.00,CLR,,0.00,WeatherDisplay:10.37,2013-08-12 09:57:00,
2013-08-12 05:02:00,57.6,54.3,30.05,North,360,0.0,0.0,89,0.00,CLR,,0.00,WeatherDisplay:10.37,2013-08-12 10:02:00,
2013-08-12 05:07:00,57.6,54.3,30.05,North,360,0.0,0.0,89,0.00,CLR,,0.00,WeatherDisplay:10.37,2013-08-12 10:07:00,
2013-08-12 05:12:00,57.4,54.2,30.05,North,360,0.0,0.0,89,0.00,CLR,,0.00,WeatherDisplay:10.37,2013-08-12 10:12:00,
2013-08-12 05:17:00,57.2,54.0,30.05,North,360,0.0,0.0,89,0.00,CLR,,0.00,WeatherDisplay:10.37,2013-08-12 10:17:00,
2013-08-12 05:22:00,57.0,53.8,30.06,North,360,0.0,0.0,89,0.00,CLR,,0.00,WeatherDisplay:10.37,2013-08-12 10:22:00,
2013-08-12 05:27:00,57.0,53.8,30.05,North,360,0.0,0.0,89,0.00,CLR,,0.00,WeatherDisplay:10.37,2013-08-12 10:27:00,
2013-08-12 05:32:00,56.8,53.6,30.06,North,360,0.0,0.0,89,0.00,CLR,,0.00,WeatherDisplay:10.37,2013-08-12 10:32:00,
2013-08-12 05:37:00,56.8,53.6,30.06,North,360,0.0,0.0,89,0.00,CLR,,0.00,WeatherDisplay:10.37,2013-08-12 10:37:00,
2013-08-12 05:42:00,56.8,53.5,30.06,North,360,0.0,0.0,89,0.00,CLR,,0.00,WeatherDisplay:10.37,2013-08-12 10:42:00,
2013-08-12 05:47:00,56.6,53.4,30.06,North,360,0.0,0.0,89,0.00,CLR,,0.00,WeatherDisplay:10.37,2013-08-12 10:47:00,
2013-08-12 05:52:00,56.5,53.3,30.06,North,360,0.0,0.0,89,0.00,CLR,,0.00,WeatherDisplay:10.37,2013-08-12 10:52:00,
2013-08-12 05:57:00,56.5,53.3,30.06,North,360,0.0,0.0,89,0.00,CLR,,0.00,WeatherDisplay:10.37,2013-08-12 10:57:00,
2013-08-12 06:02:00,56.5,53.3,30.06,North,360,0.0,0.0,89,0.00,CLR,,0.00,WeatherDisplay:10.37,2013-08-12 11:02:00,
2013-08-12 06:12:00,56.5,53.6,30.06,North,360,0.0,0.0,90,0.00,CLR,,0.00,WeatherDisplay:10.37,2013-08-12 11:12:00,
2013-08-12 06:17:00,56.5,53.6,30.06,North,360,0.0,0.0,90,0.00,CLR,,0.00,WeatherDisplay:10.37,2013-08-12 11:17:00,
2013-08-12 06:22:00,56.5,53.6,30.05,North,360,0.0,0.0,90,0.00,CLR,,0.00,WeatherDisplay:10.37,2013-08-12 11:22:00,
2013-08-12 06:27:00,56.4,53.5,30.06,North,360,0.0,0.0,90,0.00,CLR,,0.00,WeatherDisplay:10.37,2013-08-12 11:27:00,
2013-08-12 06:32:00,56.5,53.6,30.06,North,360,0.0,0.0,90,0.00,CLR,,0.00,WeatherDisplay:10.37,2013-08-12 11:32:00,
2013-08-12 06:37:00,56.3,53.4,30.06,North,360,0.0,0.0,90,0.00,CLR,,0.00,WeatherDisplay:10.37,2013-08-12 11:37:00,
2013-08-12 06:42:00,56.5,53.6,30.06,North,360,0.0,0.0,90,0.00,CLR,,0.00,WeatherDisplay:10.37,2013-08-12 11:42:00,
2013-08-12 06:47:00,56.5,53.6,30.06,North,360,0.0,0.0,90,0.00,CLR,,0.00,WeatherDisplay:10.37,2013-08-12 11:47:00,
2013-08-12 06:52:00,56.8,53.9,30.06,North,360,0.0,0.0,90,0.00,CLR,,0.00,WeatherDisplay:10.37,2013-08-12 11:52:00,
2013-08-12 06:57:00,56.8,53.9,30.06,North,360,0.0,0.0,90,0.00,CLR,,0.00,WeatherDisplay:10.37,2013-08-12 11:57:00,
2013-08-12 07:02:00,57.0,54.1,30.07,North,360,0.0,0.0,90,0.00,CLR,,0.00,WeatherDisplay:10.37,2013-08-12 12:02:00,
2013-08-12 07:07:00,57.0,54.1,30.07,North,360,0.0,0.0,90,0.00,CLR,,0.00,WeatherDisplay:10.37,2013-08-12 12:07:00,
2013-08-12 07:12:00,57.4,54.5,30.07,North,360,0.0,0.0,90,0.00,CLR,,0.00,WeatherDisplay:10.37,2013-08-12 12:12:00,
2013-08-12 07:17:00,57.7,54.8,30.07,North,360,0.0,0.0,90,0.00,CLR,,0.00,WeatherDisplay:10.37,2013-08-12 12:17:00,
2013-08-12 07:22:00,57.9,55.0,30.07,North,360,0.0,0.0,90,0.00,CLR,,0.00,WeatherDisplay:10.37,2013-08-12 12:22:00,
2013-08-12 07:27:00,58.2,55.3,30.07,North,360,0.0,0.0,90,0.00,CLR,,0.00,WeatherDisplay:10.37,2013-08-12 12:27:00,
2013-08-12 07:32:00,58.8,55.9,30.07,North,360,0.0,0.0,90,0.00,CLR,,0.00,WeatherDisplay:10.37,2013-08-12 12:32:00,
2013-08-12 07:37:00,58.8,55.9,30.07,North,360,0.0,0.0,90,0.00,CLR,,0.00,WeatherDisplay:10.37,2013-08-12 12:37:00,
2013-08-12 07:42:00,58.8,55.9,30.07,North,350,0.0,0.0,90,0.00,CLR,,0.00,WeatherDisplay:10.37,2013-08-12 12:42:00,
2013-08-12 07:47:00,59.0,56.1,30.07,NW,326,0.0,0.0,90,0.00,CLR,,0.00,WeatherDisplay:10.37,2013-08-12 12:47:00,
2013-08-12 07:52:00,59.2,56.2,30.07,NW,315,0.0,0.0,90,0.00,CLR,,0.00,WeatherDisplay:10.37,2013-08-12 12:52:00,
2013-08-12 07:57:00,59.5,56.6,30.07,NW,315,0.0,0.0,90,0.00,CLR,,0.00,WeatherDisplay:10.37,2013-08-12 12:57:00,
2013-08-12 08:02:00,59.5,56.6,30.07,NW,315,0.0,0.0,90,0.00,CLR,,0.00,WeatherDisplay:10.37,2013-08-12 13:02:00,
2013-08-12 08:07:00,59.7,56.5,30.08,NW,315,0.0,0.0,89,0.00,CLR,,0.00,WeatherDisplay:10.37,2013-08-12 13:07:00,
2013-08-12 08:12:00,59.9,56.6,30.08,NW,315,0.0,0.0,89,0.00,CLR,,0.00,WeatherDisplay:10.37,2013-08-12 13:12:00,
2013-08-12 08:17:00,60.1,56.5,30.07,NW,315,0.0,0.0,88,0.00,CLR,,0.00,WeatherDisplay:10.37,2013-08-12 13:17:00,
2013-08-12 08:22:00,60.6,57.0,30.08,NW,315,0.0,0.0,88,0.00,CLR,,0.00,WeatherDisplay:10.37,2013-08-12 13:22:00,
2013-08-12 08:27:00,61.5,57.9,30.08,NW,315,0.0,0.0,88,0.00,CLR,,0.00,WeatherDisplay:10.37,2013-08-12 13:27:00,
2013-08-12 08:32:00,63.8,59.5,30.07,NW,325,0.0,0.0,86,0.00,CLR,,0.00,WeatherDisplay:10.37,2013-08-12 13:32:00,
2013-08-12 08:37:00,64.8,59.5,30.08,NNW,341,0.0,0.0,83,0.00,CLR,,0.00,WeatherDisplay:10.37,2013-08-12 13:37:00,
2013-08-12 08:42:00,66.2,60.2,30.07,NNW,343,0.0,0.0,81,0.00,CLR,,0.00,WeatherDisplay:10.37,2013-08-12 13:42:00,
2013-08-12 08:52:00,68.2,60.3,30.08,North,359,0.0,0.0,76,0.00,CLR,,0.00,WeatherDisplay:10.37,2013-08-12 13:52:00,
2013-08-12 08:57:00,69.0,60.3,30.07,North,360,0.0,0.0,74,0.00,CLR,,0.00,WeatherDisplay:10.37,2013-08-12 13:57:00,
2013-08-12 09:02:00,68.7,59.7,30.08,North,355,0.0,0.0,73,0.00,CLR,,0.00,WeatherDisplay:10.37,2013-08-12 14:02:00,
2013-08-12 09:07:00,69.4,60.0,30.08,North,0,0.0,0.0,72,0.00,CLR,,0.00,WeatherDisplay:10.37,2013-08-12 14:07:00,
2013-08-12 09:12:00,70.2,60.7,30.08,NNE,13,0.0,0.0,72,0.00,CLR,,0.00,WeatherDisplay:10.37,2013-08-12 14:12:00,
2013-08-12 09:17:00,70.0,60.1,30.08,North,3,0.0,2.0,71,0.00,CLR,,0.00,WeatherDisplay:10.37,2013-08-12 14:17:00,
2013-08-12 09:22:00,69.4,59.6,30.08,North,3,0.0,0.0,71,0.00,CLR,,0.00,WeatherDisplay:10.37,2013-08-12 14:22:00,
2013-08-12 09:27:00,70.1,60.3,30.08,North,353,0.0,0.0,71,0.00,CLR,,0.00,WeatherDisplay:10.37,2013-08-12 14:27:00,
2013-08-12 09:32:00,71.2,60.1,30.08,NNW,347,0.0,0.0,68,0.00,CLR,,0.00,WeatherDisplay:10.37,2013-08-12 14:32:00,
2013-08-12 09:37:00,71.8,61.1,30.08,North,2,0.0,0.0,69,0.00,CLR,,0.00,WeatherDisplay:10.37,2013-08-12 14:37:00,
2013-08-12 09:42:00,72.2,60.6,30.08,North,1,0.0,0.0,67,0.00,CLR,,0.00,WeatherDisplay:10.37,2013-08-12 14:42:00,
2013-08-12 09:47:00,71.8,60.2,30.08,North,353,0.0,0.0,67,0.00,CLR,,0.00,WeatherDisplay:10.37,2013-08-12 14:47:00,
2013-08-12 09:57:00,73.0,61.4,30.08,NNE,28,0.0,0.0,67,0.00,CLR,,0.00,WeatherDisplay:10.37,2013-08-12 14:57:00,
2013-08-12 10:02:00,73.6,61.5,30.08,ENE,59,0.0,0.0,66,0.00,CLR,,0.00,WeatherDisplay:10.37,2013-08-12 15:02:00,
2013-08-12 10:07:00,73.9,60.5,30.09,NNE,27,0.0,0.0,63,0.00,CLR,,0.00,WeatherDisplay:10.37,2013-08-12 15:07:00,
2013-08-12 10:12:00,74.0,58.8,30.09,North,355,0.0,0.0,59,0.00,CLR,,0.00,WeatherDisplay:10.37,2013-08-12 15:12:00,
2013-08-12 10:17:00,74.5,59.2,30.08,North,360,0.0,0.0,59,0.00,CLR,,0.00,WeatherDisplay:10.37,2013-08-12 15:17:00,
2013-08-12 10:22:00,74.8,59.6,30.08,NNE,14,0.0,0.0,59,0.00,CLR,,0.00,WeatherDisplay:10.37,2013-08-12 15:22:00,
2013-08-12 10:27:00,75.1,60.3,30.09,NNE,19,0.0,0.0,60,0.00,CLR,,0.00,WeatherDisplay:10.37,2013-08-12 15:27:00,
2013-08-12 10:32:00,75.6,60.2,30.08,North,5,0.0,0.0,59,0.00,CLR,,0.00,WeatherDisplay:10.37,2013-08-12 15:32:00,
2013-08-12 10:37:00,75.7,59.4,30.09,North,360,0.0,0.0,57,0.00,CLR,,0.00,WeatherDisplay:10.37,2013-08-12 15:37:00,
2013-08-12 10:42:00,75.9,59.1,30.09,North,360,2.0,7.0,56,0.00,CLR,,0.00,WeatherDisplay:10.37,2013-08-12 15:42:00,
2013-08-12 10:47:00,75.9,59.1,30.08,North,360,2.0,7.0,56,0.00,CLR,,0.00,WeatherDisplay:10.37,2013-08-12 15:47:00,
2013-08-12 10:52:00,76.5,60.1,30.08,North,1,0.0,0.0,57,0.00,CLR,,0.00,WeatherDisplay:10.37,2013-08-12 15:52:00,
2013-08-12 10:57:00,77.0,59.6,30.08,NNE,16,3.0,3.0,55,0.00,CLR,,0.00,WeatherDisplay:10.37,2013-08-12 15:57:00,
2013-08-12 11:02:00,77.5,60.1,30.08,NNE,22,3.0,3.0,55,0.00,CLR,,0.00,WeatherDisplay:10.37,2013-08-12 16:02:00,
2013-08-12 11:07:00,77.7,59.7,30.09,NNE,27,3.0,4.0,54,0.00,CLR,,0.00,WeatherDisplay:10.37,2013-08-12 16:07:00,
2013-08-12 11:12:00,77.0,59.1,30.08,NNE,22,0.0,4.0,54,0.00,CLR,,0.00,WeatherDisplay:10.37,2013-08-12 16:12:00,
2013-08-12 11:17:00,76.8,58.9,30.08,NNE,15,0.0,0.0,54,0.00,CLR,,0.00,WeatherDisplay:10.37,2013-08-12 16:17:00,
2013-08-12 11:22:00,77.2,59.3,30.08,North,5,0.0,0.0,54,0.00,CLR,,0.00,WeatherDisplay:10.37,2013-08-12 16:22:00,
2013-08-12 11:32:00,77.5,60.1,30.09,North,350,0.0,4.0,55,0.00,CLR,,0.00,WeatherDisplay:10.37,2013-08-12 16:32:00,
2013-08-12 11:37:00,78.1,60.1,30.09,NNW,348,0.0,3.0,54,0.00,CLR,,0.00,WeatherDisplay:10.37,2013-08-12 16:37:00,
2013-08-12 11:42:00,78.0,60.0,30.09,NNW,345,2.0,3.0,54,0.00,CLR,,0.00,WeatherDisplay:10.37,2013-08-12 16:42:00,
2013-08-12 11:47:00,78.4,59.4,30.09,NNW,337,0.0,0.0,52,0.00,CLR,,0.00,WeatherDisplay:10.37,2013-08-12 16:47:00,
2013-08-12 11:52:00,78.3,59.2,30.09,NNW,346,2.0,2.0,52,0.00,CLR,,0.00,WeatherDisplay:10.37,2013-08-12 16:52:00,
2013-08-12 11:57:00,78.6,58.9,30.09,North,360,0.0,0.0,51,0.00,CLR,,0.00,WeatherDisplay:10.37,2013-08-12 16:57:00,
2013-08-12 12:02:00,78.1,59.0,30.09,North,349,0.0,0.0,52,0.00,CLR,,0.00,WeatherDisplay:10.37,2013-08-12 17:02:00,
2013-08-12 12:07:00,78.1,59.6,30.09,North,351,0.0,0.0,53,0.00,CLR,,0.00,WeatherDisplay:10.37,2013-08-12 17:07:00,
2013-08-12 12:12:00,78.6,59.5,30.09,North,0,2.0,3.0,52,0.00,CLR,,0.00,WeatherDisplay:10.37,2013-08-12 17:12:00,
2013-08-12 12:17:00,78.4,58.8,30.09,NNE,19,0.0,0.0,51,0.00,CLR,,0.00,WeatherDisplay:10.37,2013-08-12 17:17:00,
2013-08-12 12:22:00,78.6,59.5,30.09,NNE,18,0.0,0.0,52,0.00,CLR,,0.00,WeatherDisplay:10.37,2013-08-12 17:22:00,
2013-08-12 12:27:00,78.7,58.5,30.09,NW,322,0.0,0.0,50,0.00,CLR,,0.00,WeatherDisplay:10.37,2013-08-12 17:27:00,
2013-08-12 12:32:00,78.6,58.4,30.09,NW,309,0.0,0.0,50,0.00,CLR,,0.00,WeatherDisplay:10.37,2013-08-12 17:32:00,
2013-08-12 12:37:00,78.6,60.1,30.09,NNW,341,0.0,0.0,53,0.00,CLR,,0.00,WeatherDisplay:10.37,2013-08-12 17:37:00,
2013-08-12 12:42:00,78.6,59.5,30.09,NNW,329,0.0,0.0,52,0.00,CLR,,0.00,WeatherDisplay:10.37,2013-08-12 17:42:00,
2013-08-12 12:47:00,78.8,59.7,30.09,NW,321,0.0,0.0,52,0.00,CLR,,0.00,WeatherDisplay:10.37,2013-08-12 17:47:00,
2013-08-12 12:52:00,78.6,59.5,30.09,NNW,336,0.0,0.0,52,0.00,CLR,,0.00,WeatherDisplay:10.37,2013-08-12 17:52:00,
2013-08-12 12:57:00,78.6,59.0,30.09,NNW,346,0.0,0.0,51,0.00,CLR,,0.00,WeatherDisplay:10.37,2013-08-12 17:57:00,
2013-08-12 13:02:00,79.0,59.9,30.09,NNW,340,0.0,0.0,52,0.00,CLR,,0.00,WeatherDisplay:10.37,2013-08-12 18:02:00,
2013-08-12 13:07:00,79.0,59.9,30.09,NNW,331,0.0,0.0,52,0.00,CLR,,0.00,WeatherDisplay:10.37,2013-08-12 18:07:00,
2013-08-12 13:12:00,79.0,59.9,30.09,WNW,301,0.0,0.0,52,0.00,CLR,,0.00,WeatherDisplay:10.37,2013-08-12 18:12:00,
2013-08-12 13:17:00,79.2,60.0,30.09,WNW,294,0.0,0.0,52,0.00,CLR,,0.00,WeatherDisplay:10.37,2013-08-12 18:17:00,
2013-08-12 13:22:00,79.5,60.4,30.09,NW,325,0.0,0.0,52,0.00,CLR,,0.00,WeatherDisplay:10.37,2013-08-12 18:22:00,
2013-08-12 13:27:00,79.7,61.1,30.09,NNW,333,0.0,0.0,53,0.00,CLR,,0.00,WeatherDisplay:10.37,2013-08-12 18:27:00,
2013-08-12 13:32:00,79.2,58.4,30.08,North,4,0.0,0.0,49,0.00,CLR,,0.00,WeatherDisplay:10.37,2013-08-12 18:32:00,
2013-08-12 13:37:00,79.3,60.2,30.08,North,9,0.0,0.0,52,0.00,CLR,,0.00,WeatherDisplay:10.37,2013-08-12 18:37:00,
2013-08-12 13:42:00,79.0,59.9,30.08,NNW,344,1.0,5.0,52,0.00,CLR,,0.00,WeatherDisplay:10.37,2013-08-12 18:42:00,
2013-08-12 13:47:00,79.3,60.7,30.08,NW,321,0.0,5.0,53,0.00,CLR,,0.00,WeatherDisplay:10.37,2013-08-12 18:47:00,
2013-08-12 13:52:00,79.9,60.1,30.08,NW,321,0.0,0.0,51,0.00,CLR,,0.00,WeatherDisplay:10.37,2013-08-12 18:52:00,
2013-08-12 13:57:00,79.7,58.8,30.08,NNW,330,0.0,0.0,49,0.00,CLR,,0.00,WeatherDisplay:10.37,2013-08-12 18:57:00,
2013-08-12 14:02:00,79.0,58.8,30.08,NW,323,1.0,2.0,50,0.00,CLR,,0.00,WeatherDisplay:10.37,2013-08-12 19:02:00,
2013-08-12 14:12:00,79.0,58.8,30.08,NW,324,1.0,3.0,50,0.00,CLR,,0.00,WeatherDisplay:10.37,2013-08-12 19:12:00,
2013-08-12 14:17:00,78.6,59.5,30.08,NNW,336,2.0,3.0,52,0.00,CLR,,0.00,WeatherDisplay:10.37,2013-08-12 19:17:00,
2013-08-12 14:22:00,79.2,58.9,30.08,NNW,331,0.0,2.0,50,0.00,CLR,,0.00,WeatherDisplay:10.37,2013-08-12 19:22:00,
2013-08-12 14:27:00,79.3,59.1,30.08,NNW,328,0.0,0.0,50,0.00,CLR,,0.00,WeatherDisplay:10.37,2013-08-12 19:27:00,
2013-08-12 14:32:00,79.5,59.8,30.08,NNW,341,3.0,4.0,51,0.00,CLR,,0.00,WeatherDisplay:10.37,2013-08-12 19:32:00,
2013-08-12 14:37:00,79.4,59.1,30.08,NW,314,0.0,4.0,50,0.00,CLR,,0.00,WeatherDisplay:10.37,2013-08-12 19:37:00,
2013-08-12 14:42:00,79.3,59.1,30.08,NW,307,2.0,5.0,50,0.00,CLR,,0.00,WeatherDisplay:10.37,2013-08-12 19:42:00,
2013-08-12 14:47:00,79.3,59.1,30.08,WNW,297,0.0,5.0,50,0.00,CLR,,0.00,WeatherDisplay:10.37,2013-08-12 19:47:00,
2013-08-12 14:52:00,79.8,59.5,30.08,NW,313,0.0,2.0,50,0.00,CLR,,0.00,WeatherDisplay:10.37,2013-08-12 19:52:00,
2013-08-12 14:57:00,79.5,59.2,30.08,NW,324,3.0,5.0,50,0.00,CLR,,0.00,WeatherDisplay:10.37,2013-08-12 19:57:00,
2013-08-12 15:02:00,79.7,60.0,30.08,NNW,342,0.0,5.0,51,0.00,CLR,,0.00,WeatherDisplay:10.37,2013-08-12 20:02:00,
2013-08-12 15:07:00,79.9,59.6,30.07,North,349,0.0,0.0,50,0.00,CLR,,0.00,WeatherDisplay:10.37,2013-08-12 20:07:00,
2013-08-12 15:12:00,80.2,60.5,30.07,NNW,332,0.0,0.0,51,0.00,CLR,,0.00,WeatherDisplay:10.37,2013-08-12 20:12:00,
2013-08-12 15:17:00,80.6,59.7,30.07,North,349,2.0,2.0,49,0.00,CLR,,0.00,WeatherDisplay:10.37,2013-08-12 20:17:00,
2013-08-12 15:22:00,80.8,59.3,30.08,North,3,0.0,2.0,48,0.00,CLR,,0.00,WeatherDisplay:10.37,2013-08-12 20:22:00,
2013-08-12 15:27:00,80.2,58.8,30.07,North,357,1.0,3.0,48,0.00,CLR,,0.00,WeatherDisplay:10.37,2013-08-12 20:27:00,
2013-08-12 15:32:00,80.1,59.2,30.07,North,349,0.0,3.0,49,0.00,CLR,,0.00,WeatherDisplay:10.37,2013-08-12 20:32:00,
2013-08-12 15:37:00,79.5,58.7,30.07,NNW,343,0.0,0.0,49,0.00,CLR,,0.00,WeatherDisplay:10.37,2013-08-12 20:37:00,
2013-08-12 15:42:00,78.6,59.0,30.07,NNW,337,0.0,0.0,51,0.00,CLR,,0.00,WeatherDisplay:10.37,2013-08-12 20:42:00,
2013-08-12 15:47:00,78.4,59.4,30.07,NNW,341,0.0,0.0,52,0.00,CLR,,0.00,WeatherDisplay:10.37,2013-08-12 20:47:00,
2013-08-12 15:52:00,78.7,59.0,30.07,NNW,333,1.0,2.0,51,0.00,CLR,,0.00,WeatherDisplay:10.37,2013-08-12 20:52:00,
2013-08-12 15:57:00,79.2,58.9,30.07,NNW,338,1.0,2.0,50,0.00,CLR,,0.00,WeatherDisplay:10.37,2013-08-12 20:57:00,
2013-08-12 16:02:00,79.2,59.5,30.07,NNW,346,0.0,0.0,51,0.00,CLR,,0.00,WeatherDisplay:10.37,2013-08-12 21:02:00,
2013-08-12 16:07:00,78.9,59.2,30.07,NNW,335,0.0,0.0,51,0.00,CLR,,0.00,WeatherDisplay:10.37,2013-08-12 21:07:00,
2013-08-12 16:12:00,79.2,59.5,30.07,NW,315,0.0,0.0,51,0.00,CLR,,0.00,WeatherDisplay:10.37,2013-08-12 21:12:00,
2013-08-12 16:17:00,79.5,59.2,30.07,NNW,329,0.0,3.0,50,0.00,CLR,,0.00,WeatherDisplay:10.37,2013-08-12 21:17:00,
2013-08-12 16:22:00,79.9,59.0,30.07,North,349,3.0,5.0,49,0.00,CLR,,0.00,WeatherDisplay:10.37,2013-08-12 21:22:00,
2013-08-12 16:27:00,79.0,57.6,30.07,NNW,328,2.0,4.0,48,0.00,CLR,,0.00,WeatherDisplay:10.37,2013-08-12 21:27:00,
2013-08-12 16:32:00,78.6,58.4,30.07,NW,313,0.0,1.0,50,0.00,CLR,,0.00,WeatherDisplay:10.37,2013-08-12 21:32:00,
2013-08-12 16:37:00,78.9,59.2,30.07,NW,325,1.0,4.0,51,0.00,CLR,,0.00,WeatherDisplay:10.37,2013-08-12 21:37:00,
2013-08-12 16:47:00,79.7,59.4,30.07,North,351,0.0,3.0,50,0.00,CLR,,0.00,WeatherDisplay:10.37,2013-08-12 21:47:00,
2013-08-12 16:52:00,80.0,59.6,30.07,NNW,333,1.0,1.0,50,0.00,CLR,,0.00,WeatherDisplay:10.37,2013-08-12 21:52:00,
2013-08-12 16:57:00,80.4,60.1,30.06,NNW,332,0.0,1.0,50,0.00,CLR,,0.00,WeatherDisplay:10.37,2013-08-12 21:57:00,
2013-08-12 17:02:00,80.4,60.1,30.06,NNW,348,0.0,0.0,50,0.00,CLR,,0.00,WeatherDisplay:10.37,2013-08-12 22:02:00,
2013-08-12 17:07:00,80.1,59.2,30.06,North,358,0.0,0.0,49,0.00,CLR,,0.00,WeatherDisplay:10.37,2013-08-12 22:07:00,
2013-08-12 17:12:00,79.7,59.4,30.07,North,4,0.0,0.0,50,0.00,CLR,,0.00,WeatherDisplay:10.37,2013-08-12 22:12:00,
2013-08-12 17:17:00,79.3,59.1,30.06,North,350,0.0,0.0,50,0.00,CLR,,0.00,WeatherDisplay:10.37,2013-08-12 22:17:00,
2013-08-12 17:22:00,78.7,57.9,30.06,NNW,340,0.0,0.0,49,0.00,CLR,,0.00,WeatherDisplay:10.37,2013-08-12 22:22:00,
2013-08-12 17:27:00,78.6,57.9,30.06,NNW,342,0.0,0.0,49,0.00,CLR,,0.00,WeatherDisplay:10.37,2013-08-12 22:27:00,
2013-08-12 17:32:00,78.6,58.4,30.06,NNW,343,3.0,4.0,50,0.00,CLR,,0.00,WeatherDisplay:10.37,2013-08-12 22:32:00,
2013-08-12 17:37:00,78.4,57.1,30.06,NNW,336,0.0,4.0,48,0.00,CLR,,0.00,WeatherDisplay:10.37,2013-08-12 22:37:00,
2013-08-12 17:47:00,77.9,57.8,30.06,NNW,347,0.0,0.0,50,0.00,CLR,,0.00,WeatherDisplay:10.37,2013-08-12 22:47:00,
2013-08-12 17:52:00,77.9,57.2,30.06,NNW,329,1.0,1.0,49,0.00,CLR,,0.00,WeatherDisplay:10.37,2013-08-12 22:52:00,
2013-08-12 17:57:00,77.7,57.0,30.06,NNW,336,0.0,1.0,49,0.00,CLR,,0.00,WeatherDisplay:10.37,2013-08-12 22:57:00,
2013-08-12 18:02:00,77.4,56.1,30.06,NW,324,0.0,5.0,48,0.00,CLR,,0.00,WeatherDisplay:10.37,2013-08-12 23:02:00,
2013-08-12 18:07:00,77.2,57.1,30.06,NNW,329,0.0,3.0,50,0.00,CLR,,0.00,WeatherDisplay:10.37,2013-08-12 23:07:00,
2013-08-12 18:12:00,76.8,56.8,30.06,North,350,0.0,3.0,50,0.00,CLR,,0.00,WeatherDisplay:10.37,2013-08-12 23:12:00,
2013-08-12 18:17:00,76.6,56.6,30.06,North,1,0.0,0.0,50,0.00,CLR,,0.00,WeatherDisplay:10.37,2013-08-12 23:17:00,
2013-08-12 18:27:00,75.7,56.9,30.06,NNE,12,0.0,0.0,52,0.00,CLR,,0.00,WeatherDisplay:10.37,2013-08-12 23:27:00,
2013-08-12 18:32:00,75.4,56.5,30.06,NNE,14,0.0,0.0,52,0.00,CLR,,0.00,WeatherDisplay:10.37,2013-08-12 23:32:00,
2013-08-12 18:37:00,74.9,56.6,30.06,NNE,14,0.0,0.0,53,0.00,CLR,,0.00,WeatherDisplay:10.37,2013-08-12 23:37:00,
2013-08-12 18:42:00,74.5,56.2,30.06,NNE,12,0.0,0.0,53,0.00,CLR,,0.00,WeatherDisplay:10.37,2013-08-12 23:42:00,
2013-08-12 18:47:00,74.5,56.7,30.06,NNE,23,0.0,0.0,54,0.00,CLR,,0.00,WeatherDisplay:10.37,2013-08-12 23:47:00,
2013-08-12 18:52:00,74.4,57.6,30.06,NE,40,0.0,0.0,56,0.00,CLR,,0.00,WeatherDisplay:10.37,2013-08-12 23:52:00,
2013-08-12 18:57:00,74.1,56.9,30.05,NE,40,0.0,0.0,55,0.00,CLR,,0.00,WeatherDisplay:10.37,2013-08-12 23:57:00,
2013-08-12 19:02:00,74.1,57.9,30.05,NNE,33,0.0,0.0,57,0.00,CLR,,0.00,WeatherDisplay:10.37,2013-08-13 00:02:00,
2013-08-12 19:07:00,73.8,58.1,30.06,NNE,19,0.0,0.0,58,0.00,CLR,,0.00,WeatherDisplay:10.37,2013-08-13 00:07:00,
2013-08-12 19:12:00,73.2,57.6,30.06,North,5,0.0,0.0,58,0.00,CLR,,0.00,WeatherDisplay:10.37,2013-08-13 00:12:00,
2013-08-12 19:17:00,72.9,57.2,30.06,North,360,0.0,0.0,58,0.00,CLR,,0.00,WeatherDisplay:10.37,2013-08-13 00:17:00,
2013-08-12 19:22:00,72.5,57.4,30.06,NNW,347,0.0,0.0,59,0.00,CLR,,0.00,WeatherDisplay:10.37,2013-08-13 00:22:00,
2013-08-12 19:27:00,71.8,57.1,30.06,NNW,348,0.0,0.0,60,0.00,CLR,,0.00,WeatherDisplay:10.37,2013-08-13 00:27:00,
2013-08-12 19:32:00,71.8,57.6,30.06,North,11,0.0,0.0,61,0.00,CLR,,0.00,WeatherDisplay:10.37,2013-08-13 00:32:00,
2013-08-12 19:37:00,71.4,57.2,30.06,NNE,22,0.0,0.0,61,0.00,CLR,,0.00,WeatherDisplay:10.37,2013-08-13 00:37:00,
2013-08-12 19:42:00,70.9,57.7,30.06,NNE,22,0.0,0.0,63,0.00,CLR,,0.00,WeatherDisplay:10.37,2013-08-13 00:42:00,
2013-08-12 19:47:00,70.7,57.5,30.06,NNE,22,0.0,0.0,63,0.00,CLR,,0.00,WeatherDisplay:10.37,2013-08-13 00:47:00,
2013-08-12 19:52:00,70.5,57.8,30.06,NNE,22,0.0,0.0,64,0.00,CLR,,0.00,WeatherDisplay:10.37,2013-08-13 00:52:00,
2013-08-12 19:57:00,70.0,57.2,30.06,NNE,22,0.0,0.0,64,0.00,CLR,,0.00,WeatherDisplay:10.37,2013-08-13 00:57:00,
2013-08-12 20:02:00,70.0,57.7,30.05,NNE,22,0.0,0.0,65,0.00,CLR,,0.00,WeatherDisplay:10.37,2013-08-13 01:02:00,
2013-08-12 20:07:00,69.3,57.1,30.06,NNE,22,0.0,0.0,65,0.00,CLR,,0.00,WeatherDisplay:10.37,2013-08-13 01:07:00,
2013-08-12 20:12:00,68.9,56.6,30.06,NNE,22,0.0,0.0,65,0.00,CLR,,0.00,WeatherDisplay:10.37,2013-08-13 01:12:00,
2013-08-12 20:17:00,68.7,56.9,30.06,NNE,22,0.0,0.0,66,0.00,CLR,,0.00,WeatherDisplay:10.37,2013-08-13 01:17:00,
2013-08-12 20:22:00,68.4,56.5,30.07,NNE,22,0.0,0.0,66,0.00,CLR,,0.00,WeatherDisplay:10.37,2013-08-13 01:22:00,
2013-08-12 20:27:00,67.8,56.5,30.07,NNE,22,0.0,0.0,67,0.00,CLR,,0.00,WeatherDisplay:10.37,2013-08-13 01:27:00,
2013-08-12 20:32:00,67.3,56.4,30.07,NNE,22,0.0,0.0,68,0.00,CLR,,0.00,WeatherDisplay:10.37,2013-08-13 01:32:00,
2013-08-12 20:37:00,67.0,56.1,30.07,NNE,22,0.0,0.0,68,0.00,CLR,,0.00,WeatherDisplay:10.37,2013-08-13 01:37:00,
2013-08-12 20:42:00,66.6,56.1,30.07,NNE,22,0.0,0.0,69,0.00,CLR,,0.00,WeatherDisplay:10.37,2013-08-13 01:42:00,
2013-08-12 20:47:00,66.0,56.0,30.07,NNE,22,0.0,0.0,70,0.00,CLR,,0.00,WeatherDisplay:10.37,2013-08-13 01:47:00,
2013-08-12 20:52:00,65.7,56.0,30.07,NNE,22,0.0,0.0,71,0.00,CLR,,0.00,WeatherDisplay:10.37,2013-08-13 01:52:00,
2013-08-12 20:57:00,65.3,55.7,30.06,NNE,22,0.0,0.0,71,0.00,CLR,,0.00,WeatherDisplay:10.37,2013-08-13 01:57:00,
2013-08-12 21:02:00,65.1,55.5,30.07,NNE,22,0.0,0.0,71,0.00,CLR,,0.00,WeatherDisplay:10.37,2013-08-13 02:02:00,
2013-08-12 21:07:00,64.6,55.8,30.07,NNE,22,0.0,0.0,73,0.00,CLR,,0.00,WeatherDisplay:10.37,2013-08-13 02:07:00,
2013-08-12 21:12:00,64.2,55.4,30.07,NNE,22,0.0,0.0,73,0.00,CLR,,0.00,WeatherDisplay:10.37,2013-08-13 02:12:00,
2013-08-12 21:17:00,64.2,55.4,30.07,NNE,22,0.0,0.0,73,0.00,CLR,,0.00,WeatherDisplay:10.37,2013-08-13 02:17:00,
2013-08-12 21:22:00,63.8,55.3,30.08,NNE,22,0.0,0.0,74,0.00,CLR,,0.00,WeatherDisplay:10.37,2013-08-13 02:22:00,
2013-08-12 21:27:00,63.7,55.6,30.08,NNE,22,0.0,0.0,75,0.00,CLR,,0.00,WeatherDisplay:10.37,2013-08-13 02:27:00,
2013-08-12 21:32:00,63.3,55.3,30.08,NNE,22,0.0,0.0,75,0.00,CLR,,0.00,WeatherDisplay:10.37,2013-08-13 02:32:00,
2013-08-12 21:37:00,63.1,55.4,30.08,NNE,22,0.0,0.0,76,0.00,CLR,,0.00,WeatherDisplay:10.37,2013-08-13 02:37:00,
2013-08-12 21:42:00,63.0,55.3,30.08,NNE,22,0.0,0.0,76,0.00,CLR,,0.00,WeatherDisplay:10.37,2013-08-13 02:42:00,
2013-08-12 21:47:00,62.8,55.5,30.08,NNE,22,0.0,0.0,77,0.00,CLR,,0.00,WeatherDisplay:10.37,2013-08-13 02:47:00,
2013-08-12 21:52:00,62.6,55.3,30.08,NNE,22,0.0,0.0,77,0.00,CLR,,0.00,WeatherDisplay:10.37,2013-08-13 02:52:00,
2013-08-12 21:57:00,62.4,55.5,30.09,NNE,22,0.0,0.0,78,0.00,CLR,,0.00,WeatherDisplay:10.37,2013-08-13 02:57:00,
2013-08-12 22:02:00,62.4,55.5,30.09,NNE,22,0.0,0.0,78,0.00,CLR,,0.00,WeatherDisplay:10.37,2013-08-13 03:02:00,
2013-08-12 22:07:00,62.2,55.6,30.09,NNE,22,0.0,0.0,79,0.00,CLR,,0.00,WeatherDisplay:10.37,2013-08-13 03:07:00,
2013-08-12 22:12:00,62.1,55.5,30.09,NNE,22,0.0,0.0,79,0.00,CLR,,0.00,WeatherDisplay:10.37,2013-08-13 03:12:00,
2013-08-12 22:17:00,61.7,55.5,30.09,NNE,22,0.0,0.0,80,0.00,CLR,,0.00,WeatherDisplay:10.37,2013-08-13 03:17:00,
2013-08-12 22:22:00,61.5,55.6,30.10,NNE,22,0.0,0.0,81,0.00,CLR,,0.00,WeatherDisplay:10.37,2013-08-13 03:22:00,
2013-08-12 22:27:00,61.3,55.5,30.10,NNE,22,0.0,0.0,81,0.00,CLR,,0.00,WeatherDisplay:10.37,2013-08-13 03:27:00,
2013-08-12 22:32:00,61.3,55.5,30.10,NNE,22,0.0,0.0,81,0.00,CLR,,0.00,WeatherDisplay:10.37,2013-08-13 03:32:00,
2013-08-12 22:37:00,61.2,55.6,30.09,NNE,22,0.0,0.0,82,0.00,CLR,,0.00,WeatherDisplay:10.37,2013-08-13 03:37:00,
2013-08-12 22:42:00,61.0,55.4,30.09,NNE,22,0.0,0.0,82,0.00,CLR,,0.00,WeatherDisplay:10.37,2013-08-13 03:42:00,
2013-08-12 22:47:00,61.0,55.4,30.09,NNE,22,0.0,0.0,82,0.00,CLR,,0.00,WeatherDisplay:10.37,2013-08-13 03:47:00,
2013-08-12 22:57:00,60.4,55.3,30.09,NNE,22,0.0,0.0,83,0.00,CLR,,0.00,WeatherDisplay:10.37,2013-08-13 03:57:00,
2013-08-12 23:02:00,60.4,55.2,30.09,NNE,22,0.0,0.0,83,0.00,CLR,,0.00,WeatherDisplay:10.37,2013-08-13 04:02:00,
2013-08-12 23:07:00,60.1,54.9,30.09,NNE,22,0.0,0.0,83,0.00,CLR,,0.00,WeatherDisplay:10.37,2013-08-13 04:07:00,
2013-08-12 23:12:00,59.9,54.7,30.09,NNE,22,0.0,0.0,83,0.00,CLR,,0.00,WeatherDisplay:10.37,2013-08-13 04:12:00,
2013-08-12 23:17:00,59.9,55.1,30.09,NNE,22,0.0,0.0,84,0.00,CLR,,0.00,WeatherDisplay:10.37,2013-08-13 04:17:00,
2013-08-12 23:22:00,59.7,54.9,30.09,NNE,22,0.0,0.0,84,0.00,CLR,,0.00,WeatherDisplay:10.37,2013-08-13 04:22:00,
2013-08-12 23:27:00,59.7,54.9,30.09,NNE,22,0.0,0.0,84,0.00,CLR,,0.00,WeatherDisplay:10.37,2013-08-13 04:27:00,
2013-08-12 23:32:00,59.5,54.7,30.09,North,10,0.0,0.0,84,0.00,CLR,,0.00,WeatherDisplay:10.37,2013-08-13 04:32:00,
2013-08-12 23:37:00,59.5,54.7,30.09,North,360,0.0,0.0,84,0.00,CLR,,0.00,WeatherDisplay:10.37,2013-08-13 04:37:00,
2013-08-12 23:42:00,58.8,53.7,30.09,North,360,0.0,0.0,83,0.00,CLR,,0.00,WeatherDisplay:10.37,2013-08-13 04:42:00,
2013-08-12 23:47:00,58.8,54.0,30.09,North,360,0.0,0.0,84,0.00,CLR,,0.00,WeatherDisplay:10.37,2013-08-13 04:47:00,
2013-08-12 23:52:00,58.8,54.0,30.09,North,360,0.0,0.0,84,0.00,CLR,,0.00,WeatherDisplay:10.37,2013-08-13 04:52:00,
2013-08-12 23:57:00,58.8,54.0,30.10,North,360,0.0,0.0,84,0.00,CLR,,0.00,WeatherDisplay:10.37,2013-08-13 04:57:00,